Time;durP1;ratioP1;P1;durP2;ratioP2;P2;SDS_P1;SDS_P2;PMS_P1;PMS_P2;Temp;Humidity;BMP_temperature;BMP_pressure;BME280_temperature;BME280_humidity;BME280_pressure;Samples;Min_cycle;Max_cycle;Signal;HPM_P1;HPM_P2
2021/12/05 00:20:30;;;;;;;21.05;6.32;;;;;;;;;;5109201;28;20285;-82
2021/12/05 00:22:30;;;;;;;16.75;5.53;;;;;;;;;;5086896;28;20046;-78
2021/12/05 00:24:59;;;;;;;22.40;6.53;;;;;;;;;;5108880;28;20043;-82
2021/12/05 00:27:28;;;;;;;18.67;6.68;;;;;;;;;;5077842;28;20039;-82
2021/12/05 00:30:08;;;;;;;18.98;6.63;;;;;;;;;;5099218;28;20040;-83
2021/12/05 00:40:55;;;;;;;15.23;6.57;;;;;;;;;;5110135;28;19971;-83
2021/12/05 01:07:06;;;;;;;16.48;5.75;;;;;;;;;;5108776;28;20039;-78
2021/12/05 01:15:03;;;;;;;18.08;6.15;;;;;;;;;;5109841;28;20482;-78
2021/12/05 01:17:37;;;;;;;20.50;6.07;;;;;;;;;;5092065;28;20630;-82
2021/12/05 01:20:06;;;;;;;16.45;6.07;;;;;;;;;;5109431;28;20118;-83
2021/12/05 01:22:36;;;;;;;14.35;6.15;;;;;;;;;;5110663;28;20165;-83
2021/12/05 01:25:19;;;;;;;16.95;5.82;;;;;;;;;;5109605;28;20402;-83
2021/12/05 01:27:59;;;;;;;17.40;6.15;;;;;;;;;;5079281;28;20494;-83
2021/12/05 01:30:34;;;;;;;14.45;6.28;;;;;;;;;;5092933;28;20562;-83
2021/12/05 01:33:22;;;;;;;14.55;5.85;;;;;;;;;;5096685;28;20482;-83
2021/12/05 01:46:30;;;;;;;22.00;6.55;;;;;;;;;;5113150;28;20047;-83
2021/12/05 01:52:08;;;;;;;16.98;6.93;;;;;;;;;;5113991;28;20040;-84
2021/12/05 02:29:47;;;;;;;25.55;9.73;;;;;;;;;;5100590;28;20040;-85
2021/12/05 02:38:05;;;;;;;28.58;11.52;;;;;;;;;;5099574;28;20039;-85
2021/12/05 02:40:46;;;;;;;33.35;12.20;;;;;;;;;;5083062;28;20059;-83
2021/12/05 02:43:16;;;;;;;27.42;11.57;;;;;;;;;;5131693;27;20040;-84
2021/12/05 02:45:46;;;;;;;25.83;11.63;;;;;;;;;;5112151;28;20048;-83
2021/12/05 02:48:12;;;;;;;29.00;11.30;;;;;;;;;;5094138;28;20032;-79
2021/12/05 02:50:39;;;;;;;30.33;12.02;;;;;;;;;;5111035;28;20039;-83
2021/12/05 02:53:19;;;;;;;29.50;12.85;;;;;;;;;;5111713;28;20372;-83
2021/12/05 02:55:47;;;;;;;28.23;12.38;;;;;;;;;;5111520;28;20410;-83
2021/12/05 02:58:27;;;;;;;33.45;12.00;;;;;;;;;;5111645;28;20048;-82
2021/12/05 03:03:32;;;;;;;33.65;12.48;;;;;;;;;;5098458;28;20051;-83
2021/12/05 03:06:06;;;;;;;37.17;13.48;;;;;;;;;;5109874;28;20058;-79
2021/12/05 03:08:32;;;;;;;34.80;13.55;;;;;;;;;;5106430;28;20031;-79
2021/12/05 03:10:59;;;;;;;34.25;13.63;;;;;;;;;;5108362;28;20039;-83
2021/12/05 03:13:25;;;;;;;32.45;14.40;;;;;;;;;;5124735;27;20063;-83
2021/12/05 03:15:51;;;;;;;28.25;12.88;;;;;;;;;;5094974;28;20407;-83
2021/12/05 03:18:18;;;;;;;35.47;13.48;;;;;;;;;;5093443;28;20047;-83
2021/12/05 03:20:44;;;;;;;33.67;13.98;;;;;;;;;;5101182;28;20060;-83
2021/12/05 03:23:11;;;;;;;39.47;15.07;;;;;;;;;;5089269;28;20054;-83
2021/12/05 03:25:38;;;;;;;30.95;13.30;;;;;;;;;;5103223;28;20044;-83
2021/12/05 03:28:04;;;;;;;29.52;13.50;;;;;;;;;;5087828;28;20072;-83
2021/12/05 03:30:31;;;;;;;25.55;13.10;;;;;;;;;;5092029;28;20040;-78
2021/12/05 03:32:57;;;;;;;33.45;14.18;;;;;;;;;;5109839;28;20075;-78
2021/12/05 03:35:25;;;;;;;38.10;14.35;;;;;;;;;;5108835;28;20043;-83
2021/12/05 03:37:52;;;;;;;30.17;12.80;;;;;;;;;;5109558;28;20043;-82
2021/12/05 03:40:20;;;;;;;40.40;12.80;;;;;;;;;;5092682;28;20046;-78
2021/12/05 03:42:46;;;;;;;30.85;13.40;;;;;;;;;;5110003;28;20556;-83
2021/12/05 03:45:17;;;;;;;32.80;13.57;;;;;;;;;;5091086;28;20050;-79
2021/12/05 03:47:43;;;;;;;32.70;13.20;;;;;;;;;;5079930;28;20070;-83
2021/12/05 03:50:10;;;;;;;34.00;12.82;;;;;;;;;;5092326;28;20360;-82
2021/12/05 03:52:37;;;;;;;27.77;13.23;;;;;;;;;;5108639;28;20031;-82
2021/12/05 03:55:04;;;;;;;32.28;13.60;;;;;;;;;;5109021;28;20145;-79
2021/12/05 03:57:30;;;;;;;27.88;12.77;;;;;;;;;;5109587;28;20398;-78
2021/12/05 03:59:56;;;;;;;29.75;13.27;;;;;;;;;;5109202;28;20499;-78
2021/12/05 04:02:23;;;;;;;33.17;13.80;;;;;;;;;;5108176;28;20062;-78
2021/12/05 04:04:50;;;;;;;40.78;13.38;;;;;;;;;;5108921;28;20455;-79
2021/12/05 04:07:16;;;;;;;35.72;12.68;;;;;;;;;;5108553;28;20069;-78
2021/12/05 04:09:42;;;;;;;29.25;13.30;;;;;;;;;;5108715;28;20067;-78
2021/12/05 04:12:09;;;;;;;29.17;13.10;;;;;;;;;;5091718;28;20063;-78
2021/12/05 04:14:38;;;;;;;34.55;13.23;;;;;;;;;;5108311;28;20079;-78
2021/12/05 04:17:06;;;;;;;30.67;13.27;;;;;;;;;;5108115;28;20047;-82
2021/12/05 04:19:32;;;;;;;30.35;13.32;;;;;;;;;;5108713;28;20039;-82
2021/12/05 04:21:58;;;;;;;35.63;13.65;;;;;;;;;;5091632;28;20350;-78
2021/12/05 04:24:25;;;;;;;31.55;12.60;;;;;;;;;;5125855;27;20493;-78
2021/12/05 04:26:51;;;;;;;30.85;12.48;;;;;;;;;;5108265;28;20042;-79
2021/12/05 04:29:17;;;;;;;28.88;12.55;;;;;;;;;;5108231;28;20044;-78
2021/12/05 04:31:43;;;;;;;32.15;12.45;;;;;;;;;;5108031;28;20047;-78
2021/12/05 04:34:11;;;;;;;30.48;11.70;;;;;;;;;;5108120;28;20073;-78
2021/12/05 04:36:38;;;;;;;28.15;11.73;;;;;;;;;;5109471;28;20046;-78
2021/12/05 04:39:05;;;;;;;28.98;11.68;;;;;;;;;;5108642;28;20449;-78
2021/12/05 04:41:31;;;;;;;31.58;11.05;;;;;;;;;;5090767;28;20130;-78
2021/12/05 04:43:58;;;;;;;31.15;11.75;;;;;;;;;;5108234;28;20362;-78
2021/12/05 04:46:25;;;;;;;28.50;11.68;;;;;;;;;;5107657;28;20402;-78
2021/12/05 04:48:53;;;;;;;33.13;11.05;;;;;;;;;;5107995;28;20082;-78
2021/12/05 04:51:21;;;;;;;25.30;11.13;;;;;;;;;;5108270;28;20510;-78
2021/12/05 04:53:47;;;;;;;26.58;11.13;;;;;;;;;;5091811;28;20525;-78
2021/12/05 04:56:13;;;;;;;31.60;11.73;;;;;;;;;;5118465;28;20040;-78
2021/12/05 04:58:40;;;;;;;28.65;11.43;;;;;;;;;;5101460;28;20047;-78
2021/12/05 05:01:06;;;;;;;26.45;12.07;;;;;;;;;;5104545;28;20085;-78
2021/12/05 05:03:33;;;;;;;29.63;11.52;;;;;;;;;;5098570;28;20048;-79
2021/12/05 05:06:11;;;;;;;36.35;11.57;;;;;;;;;;5101367;28;20070;-79
2021/12/05 05:08:38;;;;;;;31.88;11.52;;;;;;;;;;5106524;28;20109;-79
2021/12/05 05:11:05;;;;;;;26.98;10.55;;;;;;;;;;5108969;28;20119;-78
2021/12/05 05:13:32;;;;;;;31.25;11.68;;;;;;;;;;5087215;28;20096;-78
2021/12/05 05:15:59;;;;;;;29.98;10.80;;;;;;;;;;5104170;28;20101;-79
2021/12/05 05:18:38;;;;;;;32.75;11.07;;;;;;;;;;5109876;28;20046;-78
2021/12/05 05:29:26;;;;;;;25.17;10.32;;;;;;;;;;5096999;28;20465;-78
2021/12/05 05:42:43;;;;;;;25.55;9.77;;;;;;;;;;5112285;28;20097;-78
2021/12/05 05:48:13;;;;;;;25.33;10.05;;;;;;;;;;5103904;28;20127;-78
2021/12/05 05:50:39;;;;;;;25.98;9.57;;;;;;;;;;5110303;28;20585;-82
2021/12/05 05:53:06;;;;;;;26.75;10.02;;;;;;;;;;5112547;28;20502;-82
2021/12/05 05:55:32;;;;;;;28.52;10.50;;;;;;;;;;5111782;28;20052;-82
2021/12/05 06:00:39;;;;;;;26.10;9.35;;;;;;;;;;5113564;28;20595;-82
2021/12/05 06:03:22;;;;;;;33.67;9.90;;;;;;;;;;5112010;28;20499;-81
2021/12/05 06:06:07;;;;;;;27.33;9.25;;;;;;;;;;5097175;28;20044;-82
2021/12/05 06:08:35;;;;;;;27.92;9.80;;;;;;;;;;5094811;28;20067;-82
2021/12/05 06:11:03;;;;;;;27.45;8.77;;;;;;;;;;5111792;28;20035;-78
2021/12/05 06:13:30;;;;;;;21.52;8.90;;;;;;;;;;5101957;28;20040;-78
2021/12/05 06:15:57;;;;;;;21.38;8.90;;;;;;;;;;5075248;28;20056;-78
2021/12/05 06:18:23;;;;;;;26.98;8.90;;;;;;;;;;5110837;28;20050;-78
2021/12/05 06:20:50;;;;;;;25.08;8.60;;;;;;;;;;5100761;28;20127;-78
2021/12/05 06:23:17;;;;;;;24.38;8.55;;;;;;;;;;5107302;28;20147;-78
2021/12/05 06:25:44;;;;;;;27.30;8.23;;;;;;;;;;5113067;28;20035;-78
2021/12/05 06:28:13;;;;;;;20.85;7.63;;;;;;;;;;5094463;28;20036;-78
2021/12/05 06:31:00;;;;;;;24.70;8.23;;;;;;;;;;5110989;28;20040;-78
2021/12/05 06:47:10;;;;;;;23.88;7.72;;;;;;;;;;5110838;28;20087;-82
2021/12/05 06:49:36;;;;;;;24.38;7.80;;;;;;;;;;5093942;28;20065;-82
2021/12/05 06:52:03;;;;;;;23.25;7.28;;;;;;;;;;5093481;28;20096;-82
2021/12/05 06:54:29;;;;;;;19.23;7.75;;;;;;;;;;5093959;28;20052;-82
2021/12/05 06:56:55;;;;;;;22.88;7.68;;;;;;;;;;5094540;28;20503;-81
2021/12/05 06:59:21;;;;;;;24.38;8.30;;;;;;;;;;5093455;28;20036;-78
2021/12/05 07:01:47;;;;;;;24.05;7.75;;;;;;;;;;5099789;28;20147;-78
2021/12/05 07:06:58;;;;;;;23.67;7.80;;;;;;;;;;5099007;28;20495;-82
2021/12/05 07:09:26;;;;;;;23.15;8.13;;;;;;;;;;5091475;28;20485;-78
2021/12/05 07:16:57;;;;;;;21.42;8.18;;;;;;;;;;5098308;28;20142;-82
2021/12/05 07:22:01;;;;;;;27.38;8.57;;;;;;;;;;5110390;28;20130;-82
2021/12/05 07:24:44;;;;;;;19.25;8.38;;;;;;;;;;5110663;28;20495;-82
2021/12/05 07:40:55;;;;;;;24.13;9.15;;;;;;;;;;5097162;28;20035;-78
2021/12/05 07:43:21;;;;;;;28.08;8.80;;;;;;;;;;5096276;28;20044;-77
2021/12/05 07:46:04;;;;;;;23.58;8.85;;;;;;;;;;5109015;28;20399;-82
2021/12/05 07:48:33;;;;;;;25.40;8.52;;;;;;;;;;5109417;28;20051;-82
2021/12/05 07:53:32;;;;;;;27.58;9.43;;;;;;;;;;5109725;28;20100;-82
2021/12/05 07:56:07;;;;;;;21.27;8.57;;;;;;;;;;5093491;28;20067;-82
2021/12/05 08:01:21;;;;;;;26.35;9.45;;;;;;;;;;5108980;28;20048;-78
2021/12/05 08:14:54;;;;;;;23.30;8.95;;;;;;;;;;5094912;28;20044;-82
2021/12/05 08:17:21;;;;;;;27.38;9.27;;;;;;;;;;5109504;28;20372;-82
2021/12/05 08:19:47;;;;;;;28.15;9.63;;;;;;;;;;5109035;28;20444;-78
2021/12/05 08:22:14;;;;;;;30.17;9.95;;;;;;;;;;5109274;28;20035;-78
2021/12/05 08:24:42;;;;;;;28.30;9.95;;;;;;;;;;5093003;28;20467;-78
2021/12/05 08:27:13;;;;;;;29.30;9.35;;;;;;;;;;5108153;28;20047;-82
2021/12/05 08:35:07;;;;;;;20.27;9.38;;;;;;;;;;5109463;28;20047;-77
2021/12/05 08:38:12;;;;;;;25.73;9.85;;;;;;;;;;5109378;28;20035;-82
2021/12/05 08:40:45;;;;;;;26.02;8.88;;;;;;;;;;5107712;28;20511;-78
2021/12/05 08:43:48;;;;;;;23.63;9.48;;;;;;;;;;5095636;28;20081;-81
2021/12/05 09:08:32;;;;;;;28.45;9.88;;;;;;;;;;5108812;28;20096;-78
2021/12/05 09:08:49;;;;;;;27.38;9.63;;;;;;;;;;5108262;28;20070;-81
2021/12/05 09:20:36;;;;;;;27.05;10.50;;;;;;;;;;5096388;28;20051;-78
2021/12/05 09:23:35;;;;;;;23.58;10.02;;;;;;;;;;5131657;27;20048;-78
2021/12/05 09:38:56;;;;;;;25.85;10.75;;;;;;;;;;5093647;28;20384;-78
2021/12/05 10:06:46;;;;;;;68.13;37.25;;;;;;;;;;5110704;28;20044;-78
2021/12/05 10:17:01;;;;;;;21.70;9.48;;;;;;;;;;5098632;28;20050;-78
2021/12/05 10:38:08;;;;;;;88.47;53.83;;;;;;;;;;5110721;28;20047;-78
2021/12/05 10:40:40;;;;;;;24.13;11.02;;;;;;;;;;5093244;28;20043;-78
2021/12/05 10:43:12;;;;;;;22.25;10.50;;;;;;;;;;5111079;28;20372;-78
2021/12/05 10:45:48;;;;;;;23.67;10.50;;;;;;;;;;5110261;28;20054;-78
2021/12/05 10:48:26;;;;;;;22.10;9.70;;;;;;;;;;5098628;28;20460;-78
2021/12/05 10:50:54;;;;;;;27.83;10.90;;;;;;;;;;5095297;28;20039;-78
2021/12/05 10:53:23;;;;;;;29.52;12.05;;;;;;;;;;5110108;28;20035;-78
2021/12/05 10:56:02;;;;;;;99.75;61.58;;;;;;;;;;5095940;28;20047;-78
2021/12/05 10:58:33;;;;;;;23.58;11.98;;;;;;;;;;5110215;28;20043;-78
2021/12/05 11:01:07;;;;;;;19.58;9.80;;;;;;;;;;5110664;28;20047;-78
2021/12/05 11:03:33;;;;;;;21.27;8.93;;;;;;;;;;5109847;28;20414;-78
2021/12/05 11:05:59;;;;;;;20.85;8.93;;;;;;;;;;5111277;28;20089;-78
2021/12/05 11:08:31;;;;;;;21.70;8.35;;;;;;;;;;5100227;28;20063;-78
2021/12/05 11:11:08;;;;;;;17.70;9.02;;;;;;;;;;5089706;28;20031;-78
2021/12/05 11:13:36;;;;;;;20.95;8.77;;;;;;;;;;5109677;28;20475;-78
2021/12/05 11:16:02;;;;;;;21.00;8.90;;;;;;;;;;5076164;28;20332;-77
2021/12/05 11:18:44;;;;;;;22.10;8.25;;;;;;;;;;5108153;28;20043;-78
2021/12/05 11:21:29;;;;;;;17.15;8.20;;;;;;;;;;5109876;28;20047;-82
2021/12/05 11:24:08;;;;;;;17.73;8.52;;;;;;;;;;5097639;28;20495;-82
2021/12/05 11:26:35;;;;;;;15.32;7.78;;;;;;;;;;5092526;28;20044;-82
2021/12/05 11:29:01;;;;;;;17.88;8.30;;;;;;;;;;5109700;28;20075;-82
2021/12/05 11:31:29;;;;;;;15.30;8.13;;;;;;;;;;5092097;28;20039;-81
2021/12/05 11:33:56;;;;;;;16.98;7.90;;;;;;;;;;5109669;28;20534;-82
2021/12/05 11:36:27;;;;;;;18.70;7.90;;;;;;;;;;5106620;27;20402;-78
2021/12/05 11:38:54;;;;;;;18.30;7.93;;;;;;;;;;5108157;28;20039;-78
2021/12/05 11:41:22;;;;;;;14.40;7.00;;;;;;;;;;5109453;28;20391;-78
2021/12/05 11:43:53;;;;;;;15.63;7.60;;;;;;;;;;5109740;28;20043;-78
2021/12/05 11:46:22;;;;;;;16.75;8.48;;;;;;;;;;5108985;28;20040;-77
2021/12/05 11:49:04;;;;;;;15.98;7.32;;;;;;;;;;5092220;28;20606;-77
2021/12/05 11:51:36;;;;;;;16.92;7.35;;;;;;;;;;5108731;28;20040;-77
2021/12/05 11:54:05;;;;;;;16.15;6.53;;;;;;;;;;5106206;28;20414;-78
2021/12/05 11:56:31;;;;;;;18.58;7.53;;;;;;;;;;5081548;28;20043;-78
2021/12/05 11:59:03;;;;;;;21.40;7.80;;;;;;;;;;5109110;28;20051;-76
2021/12/05 12:01:34;;;;;;;16.20;6.72;;;;;;;;;;5091845;28;20051;-77
2021/12/05 12:04:00;;;;;;;14.48;7.75;;;;;;;;;;5109189;28;20130;-77
2021/12/05 12:06:26;;;;;;;14.80;6.72;;;;;;;;;;5108559;28;20044;-77
2021/12/05 12:08:54;;;;;;;15.88;6.63;;;;;;;;;;5109010;28;20043;-78
2021/12/05 12:11:21;;;;;;;17.23;7.05;;;;;;;;;;5108482;28;20484;-77
2021/12/05 12:13:49;;;;;;;16.23;7.18;;;;;;;;;;5071556;28;20500;-77
2021/12/05 12:16:16;;;;;;;17.73;7.72;;;;;;;;;;5140706;27;20051;-77
2021/12/05 12:18:45;;;;;;;14.32;7.32;;;;;;;;;;5108984;28;20079;-77
2021/12/05 12:21:13;;;;;;;13.52;7.40;;;;;;;;;;5109661;28;20062;-78
2021/12/05 12:23:40;;;;;;;18.88;7.30;;;;;;;;;;5108637;28;20043;-77
2021/12/05 12:26:07;;;;;;;13.07;6.43;;;;;;;;;;5108559;28;20039;-78
2021/12/05 12:28:34;;;;;;;15.45;7.65;;;;;;;;;;5091044;28;20586;-77
2021/12/05 12:31:09;;;;;;;13.98;6.57;;;;;;;;;;5108528;28;20044;-77
2021/12/05 12:33:53;;;;;;;16.15;6.20;;;;;;;;;;5108021;28;20028;-78
2021/12/05 12:36:31;;;;;;;16.08;6.97;;;;;;;;;;5108530;28;20097;-78
2021/12/05 12:38:57;;;;;;;14.95;6.13;;;;;;;;;;5108196;28;20039;-77
2021/12/05 12:41:24;;;;;;;11.88;6.75;;;;;;;;;;5108265;28;20047;-78
2021/12/05 12:43:55;;;;;;;11.70;6.10;;;;;;;;;;5109714;28;20505;-78
2021/12/05 12:46:33;;;;;;;12.75;6.18;;;;;;;;;;5107923;28;20043;-77
2021/12/05 12:49:22;;;;;;;15.57;6.30;;;;;;;;;;5108351;28;20053;-77
2021/12/05 12:52:04;;;;;;;11.30;6.40;;;;;;;;;;5107966;28;20043;-77
2021/12/05 12:54:35;;;;;;;13.23;6.00;;;;;;;;;;5094853;28;20074;-77
2021/12/05 12:57:11;;;;;;;13.32;6.30;;;;;;;;;;5108645;28;20067;-77
2021/12/05 12:59:40;;;;;;;8.93;5.22;;;;;;;;;;5078294;28;20040;-77
2021/12/05 13:10:24;;;;;;;10.65;5.70;;;;;;;;;;5107688;28;20500;-77
2021/12/05 13:12:55;;;;;;;12.27;6.15;;;;;;;;;;5108208;28;20028;-77
2021/12/05 13:15:24;;;;;;;12.75;6.38;;;;;;;;;;5096619;28;20052;-77
2021/12/05 13:17:52;;;;;;;11.43;6.13;;;;;;;;;;5105519;28;20096;-77
2021/12/05 13:20:21;;;;;;;8.18;4.43;;;;;;;;;;5108033;28;20043;-78
2021/12/05 13:23:02;;;;;;;10.75;5.45;;;;;;;;;;5108480;28;20487;-77
2021/12/05 13:25:29;;;;;;;13.80;6.38;;;;;;;;;;5108964;28;20070;-77
2021/12/05 13:27:57;;;;;;;10.55;5.75;;;;;;;;;;5113709;28;20402;-81
2021/12/05 13:30:34;;;;;;;11.85;6.05;;;;;;;;;;5111622;28;20404;-81
2021/12/05 13:33:20;;;;;;;10.00;5.43;;;;;;;;;;5112302;28;20040;-82
2021/12/05 13:35:46;;;;;;;11.65;5.40;;;;;;;;;;5113378;28;20039;-81
2021/12/05 13:38:31;;;;;;;9.48;5.30;;;;;;;;;;5113739;28;20422;-81
2021/12/05 13:41:19;;;;;;;11.32;5.63;;;;;;;;;;5101726;28;20047;-81
2021/12/05 13:44:03;;;;;;;11.32;5.93;;;;;;;;;;5113448;28;20127;-81
2021/12/05 13:46:31;;;;;;;10.45;5.22;;;;;;;;;;5110901;28;20040;-78
2021/12/05 13:48:57;;;;;;;10.48;5.20;;;;;;;;;;5111821;28;20047;-77
2021/12/05 13:51:24;;;;;;;10.95;5.57;;;;;;;;;;5111112;28;20043;-77
2021/12/05 13:53:51;;;;;;;11.20;5.85;;;;;;;;;;5111641;28;20145;-77
2021/12/05 13:56:28;;;;;;;10.75;6.05;;;;;;;;;;5111474;28;20078;-77
2021/12/05 13:58:56;;;;;;;11.30;5.82;;;;;;;;;;5111902;28;20128;-77
2021/12/05 14:01:32;;;;;;;10.60;5.72;;;;;;;;;;5110975;28;20047;-77
2021/12/05 14:04:10;;;;;;;9.00;5.47;;;;;;;;;;5094449;28;20138;-78
2021/12/05 14:06:39;;;;;;;12.75;5.63;;;;;;;;;;5101594;28;20048;-77
2021/12/05 14:09:18;;;;;;;12.93;5.32;;;;;;;;;;5106664;28;20474;-77
2021/12/05 14:11:48;;;;;;;10.75;5.85;;;;;;;;;;5101953;28;20086;-77
2021/12/05 14:14:15;;;;;;;11.00;5.60;;;;;;;;;;5106732;28;20440;-77
2021/12/05 14:16:43;;;;;;;11.48;5.65;;;;;;;;;;5093599;28;20040;-77
2021/12/05 14:19:11;;;;;;;9.93;5.45;;;;;;;;;;5111381;28;20062;-77
2021/12/05 14:21:45;;;;;;;9.90;5.18;;;;;;;;;;5111117;28;20565;-78
2021/12/05 14:24:12;;;;;;;11.13;5.55;;;;;;;;;;5112083;28;20050;-81
2021/12/05 14:26:40;;;;;;;12.45;6.30;;;;;;;;;;5110962;28;20044;-77
2021/12/05 14:29:09;;;;;;;11.38;5.75;;;;;;;;;;5111699;28;20395;-78
2021/12/05 14:31:40;;;;;;;14.93;6.38;;;;;;;;;;5093789;28;20035;-81
2021/12/05 14:34:09;;;;;;;9.57;5.50;;;;;;;;;;5110448;28;20043;-81
2021/12/05 14:36:55;;;;;;;10.57;5.20;;;;;;;;;;5110321;28;20082;-82
2021/12/05 14:39:28;;;;;;;9.52;5.28;;;;;;;;;;5111336;28;20375;-82
2021/12/05 14:41:56;;;;;;;10.15;5.28;;;;;;;;;;5094810;28;20495;-78
2021/12/05 14:44:22;;;;;;;9.80;5.43;;;;;;;;;;5110520;28;20055;-77
2021/12/05 14:46:50;;;;;;;9.82;5.50;;;;;;;;;;5094254;28;20051;-77
2021/12/05 14:49:17;;;;;;;9.25;5.57;;;;;;;;;;5093818;28;20092;-77
2021/12/05 14:51:45;;;;;;;8.95;5.57;;;;;;;;;;5110600;28;20075;-78
2021/12/05 14:54:17;;;;;;;9.52;5.70;;;;;;;;;;5106615;28;20032;-77
2021/12/05 14:56:43;;;;;;;10.40;5.97;;;;;;;;;;5084693;28;20047;-76
2021/12/05 14:59:11;;;;;;;10.27;5.47;;;;;;;;;;5110614;28;20495;-81
2021/12/05 15:01:39;;;;;;;9.50;4.95;;;;;;;;;;5099960;28;20036;-81
2021/12/05 15:04:07;;;;;;;9.38;5.55;;;;;;;;;;5089485;28;20039;-81
2021/12/05 15:06:37;;;;;;;9.38;5.00;;;;;;;;;;5110709;28;20494;-81
2021/12/05 15:09:15;;;;;;;10.05;5.28;;;;;;;;;;5093681;28;20126;-78
2021/12/05 15:11:48;;;;;;;12.10;5.22;;;;;;;;;;5109418;28;20043;-81
2021/12/05 15:14:14;;;;;;;11.45;5.40;;;;;;;;;;5093410;28;20391;-80
2021/12/05 15:16:50;;;;;;;9.95;4.80;;;;;;;;;;5109521;28;20063;-81
2021/12/05 15:19:16;;;;;;;;;;;;;;;;;;5110844;28;20048;-81
2021/12/05 15:21:42;;;;;;;8.27;4.20;;;;;;;;;;5109078;28;19920;-77
2021/12/05 15:24:16;;;;;;;10.25;5.05;;;;;;;;;;5093137;28;20128;-78
2021/12/05 15:26:42;;;;;;;10.85;5.30;;;;;;;;;;5092555;28;20084;-81
2021/12/05 15:29:08;;;;;;;10.77;5.65;;;;;;;;;;5093504;28;20390;-77
2021/12/05 15:31:35;;;;;;;15.77;6.20;;;;;;;;;;5109095;28;20607;-81
2021/12/05 15:34:02;;;;;;;11.57;5.90;;;;;;;;;;5093004;28;20036;-81
2021/12/05 15:36:34;;;;;;;11.60;5.65;;;;;;;;;;5092471;28;20358;-81
2021/12/05 15:39:10;;;;;;;9.85;5.47;;;;;;;;;;5109443;28;20044;-81
2021/12/05 15:41:36;;;;;;;11.27;5.18;;;;;;;;;;5109089;28;20035;-81
2021/12/05 15:44:02;;;;;;;11.48;6.28;;;;;;;;;;5109431;28;20048;-81
2021/12/05 15:46:28;;;;;;;16.30;5.93;;;;;;;;;;5109254;28;20051;-81
2021/12/05 15:48:57;;;;;;;13.35;6.72;;;;;;;;;;5093670;28;20039;-81
2021/12/05 15:51:24;;;;;;;10.65;5.97;;;;;;;;;;5109217;28;20081;-81
2021/12/05 15:53:50;;;;;;;10.85;6.35;;;;;;;;;;5109416;28;20387;-81
2021/12/05 15:56:19;;;;;;;10.90;6.53;;;;;;;;;;5109416;28;20042;-81
2021/12/05 15:58:46;;;;;;;12.82;6.28;;;;;;;;;;5108718;28;20050;-77
2021/12/05 16:01:22;;;;;;;12.02;6.25;;;;;;;;;;5091997;28;20051;-77
2021/12/05 16:03:56;;;;;;;14.32;6.60;;;;;;;;;;5109093;28;20079;-81
2021/12/05 16:06:29;;;;;;;12.73;6.40;;;;;;;;;;5095486;28;20036;-78
2021/12/05 16:08:57;;;;;;;10.27;6.22;;;;;;;;;;5091764;28;20035;-77
2021/12/05 16:11:23;;;;;;;11.02;5.97;;;;;;;;;;5109934;28;20067;-77
2021/12/05 16:13:51;;;;;;;14.45;6.35;;;;;;;;;;5108545;28;20080;-77
2021/12/05 16:16:18;;;;;;;10.35;6.20;;;;;;;;;;5108297;28;20043;-77
2021/12/05 16:18:48;;;;;;;11.35;6.22;;;;;;;;;;5091816;28;20047;-77
2021/12/05 16:21:21;;;;;;;9.98;5.78;;;;;;;;;;5109225;28;20047;-81
2021/12/05 16:23:48;;;;;;;13.75;6.30;;;;;;;;;;5108830;28;20047;-81
2021/12/05 16:26:16;;;;;;;12.52;6.28;;;;;;;;;;5108710;28;20174;-80
2021/12/05 16:28:45;;;;;;;9.82;6.30;;;;;;;;;;5108678;28;20398;-81
2021/12/05 16:31:16;;;;;;;10.50;6.70;;;;;;;;;;5097219;28;20054;-80
2021/12/05 16:33:48;;;;;;;10.60;6.80;;;;;;;;;;5102396;28;20047;-81
2021/12/05 16:36:14;;;;;;;14.45;6.60;;;;;;;;;;5099827;28;20040;-78
2021/12/05 16:38:45;;;;;;;13.25;6.55;;;;;;;;;;5093979;28;20085;-77
2021/12/05 16:41:14;;;;;;;13.20;7.07;;;;;;;;;;5108781;28;20050;-77
2021/12/05 16:43:52;;;;;;;11.48;7.10;;;;;;;;;;5108015;28;20563;-77
2021/12/05 16:46:23;;;;;;;14.32;7.47;;;;;;;;;;5098941;28;20044;-77
2021/12/05 16:48:50;;;;;;;14.10;6.70;;;;;;;;;;5092197;28;20403;-81
2021/12/05 16:51:20;;;;;;;17.75;7.40;;;;;;;;;;5108672;28;20043;-81
2021/12/05 16:53:48;;;;;;;12.60;6.90;;;;;;;;;;5109006;28;20479;-81
2021/12/05 16:56:17;;;;;;;11.75;6.60;;;;;;;;;;5109229;28;20043;-76
2021/12/05 16:58:43;;;;;;;14.40;7.43;;;;;;;;;;5108252;28;20043;-77
2021/12/05 17:01:17;;;;;;;11.93;6.97;;;;;;;;;;5111940;28;20043;-80
2021/12/05 17:03:44;;;;;;;14.23;7.60;;;;;;;;;;5112618;28;20044;-77
2021/12/05 17:06:11;;;;;;;14.05;7.38;;;;;;;;;;5112614;28;20051;-77
2021/12/05 17:08:44;;;;;;;13.65;7.28;;;;;;;;;;5112660;28;20372;-76
2021/12/05 17:11:11;;;;;;;11.88;7.25;;;;;;;;;;5096224;28;20483;-77
2021/12/05 17:13:39;;;;;;;13.35;6.82;;;;;;;;;;5084233;28;20040;-81
2021/12/05 17:16:08;;;;;;;15.50;7.47;;;;;;;;;;5106292;28;20052;-81
2021/12/05 17:18:53;;;;;;;13.10;7.82;;;;;;;;;;5094757;28;20444;-80
2021/12/05 17:21:24;;;;;;;12.77;7.05;;;;;;;;;;5095865;28;20055;-81
2021/12/05 17:23:52;;;;;;;13.80;7.53;;;;;;;;;;5099734;28;20075;-76
2021/12/05 17:26:19;;;;;;;12.93;7.90;;;;;;;;;;5096458;28;20475;-81
2021/12/05 17:28:53;;;;;;;13.63;7.90;;;;;;;;;;5095435;28;20088;-77
2021/12/05 17:31:24;;;;;;;12.10;7.10;;;;;;;;;;5112840;28;20040;-81
2021/12/05 17:33:52;;;;;;;16.50;8.50;;;;;;;;;;5111733;28;20070;-81
2021/12/05 17:36:23;;;;;;;16.48;8.20;;;;;;;;;;5112670;28;20441;-80
2021/12/05 17:38:51;;;;;;;15.60;8.60;;;;;;;;;;5093955;28;20044;-81
2021/12/05 17:41:18;;;;;;;16.48;8.23;;;;;;;;;;5102447;28;20047;-80
2021/12/05 17:43:44;;;;;;;18.67;8.77;;;;;;;;;;5111670;28;20071;-81
2021/12/05 17:46:11;;;;;;;15.65;8.48;;;;;;;;;;5112430;28;20123;-81
2021/12/05 17:48:37;;;;;;;19.25;9.18;;;;;;;;;;5111597;28;20410;-81
2021/12/05 17:51:05;;;;;;;15.25;8.82;;;;;;;;;;5100990;28;20421;-80
2021/12/05 17:53:34;;;;;;;17.40;9.73;;;;;;;;;;5094486;28;20039;-77
2021/12/05 17:56:08;;;;;;;22.30;10.07;;;;;;;;;;5112436;28;20092;-77
2021/12/05 17:59:05;;;;;;;20.25;10.35;;;;;;;;;;5094768;28;20448;-77
2021/12/05 18:04:06;;;;;;;21.98;11.32;;;;;;;;;;5107164;28;20043;-77
2021/12/05 18:06:32;;;;;;;23.13;11.15;;;;;;;;;;5111452;28;20361;-77
2021/12/05 18:08:59;;;;;;;24.15;12.30;;;;;;;;;;5111184;28;20039;-80
2021/12/05 18:11:25;;;;;;;25.10;12.05;;;;;;;;;;5110872;28;20390;-80
2021/12/05 18:13:55;;;;;;;21.63;11.10;;;;;;;;;;5111198;28;20035;-76
2021/12/05 18:16:23;;;;;;;27.90;11.93;;;;;;;;;;5093623;28;20051;-81
2021/12/05 18:19:02;;;;;;;21.77;11.75;;;;;;;;;;5091331;28;20494;-77
2021/12/05 18:21:28;;;;;;;29.02;12.77;;;;;;;;;;5105950;28;20054;-77
2021/12/05 18:23:56;;;;;;;24.42;12.25;;;;;;;;;;5110922;28;20039;-77
2021/12/05 18:26:22;;;;;;;26.88;12.68;;;;;;;;;;5111538;28;20035;-77
2021/12/05 18:28:49;;;;;;;27.92;11.82;;;;;;;;;;5111308;28;20032;-76
2021/12/05 18:31:19;;;;;;;25.70;12.63;;;;;;;;;;5111441;28;20043;-77
2021/12/05 18:33:47;;;;;;;25.55;11.77;;;;;;;;;;5110926;28;20051;-77
2021/12/05 18:36:14;;;;;;;23.35;12.35;;;;;;;;;;5110904;28;20131;-76
2021/12/05 18:38:40;;;;;;;29.30;13.10;;;;;;;;;;5093527;28;20116;-77
2021/12/05 18:41:10;;;;;;;29.10;12.70;;;;;;;;;;5111354;28;20067;-81
2021/12/05 18:43:42;;;;;;;23.15;11.70;;;;;;;;;;5112768;28;20039;-77
2021/12/05 18:46:09;;;;;;;27.88;12.98;;;;;;;;;;5111164;28;20080;-77
2021/12/05 18:48:35;;;;;;;32.38;13.18;;;;;;;;;;5110609;28;20051;-81
2021/12/05 18:51:02;;;;;;;27.13;13.02;;;;;;;;;;5093754;28;20360;-77
2021/12/05 18:53:28;;;;;;;28.15;12.75;;;;;;;;;;5110321;28;20048;-81
2021/12/05 18:55:55;;;;;;;28.83;13.45;;;;;;;;;;5079123;28;20122;-81
2021/12/05 18:58:23;;;;;;;28.52;13.98;;;;;;;;;;5082662;28;20071;-80
2021/12/05 19:06:27;;;;;;;25.60;13.27;;;;;;;;;;5097843;28;20392;-81
2021/12/05 19:14:22;;;;;;;30.38;15.27;;;;;;;;;;5094770;28;20048;-76
2021/12/05 19:16:50;;;;;;;31.95;13.95;;;;;;;;;;5099203;28;20043;-76
2021/12/05 19:19:17;;;;;;;32.03;13.88;;;;;;;;;;5110977;28;20054;-76
2021/12/05 19:21:43;;;;;;;29.55;14.95;;;;;;;;;;5093343;28;20047;-76
2021/12/05 19:24:09;;;;;;;34.08;15.65;;;;;;;;;;5110253;28;20528;-76
2021/12/05 19:26:36;;;;;;;37.05;15.80;;;;;;;;;;5109721;28;20047;-77
2021/12/05 19:29:03;;;;;;;35.33;14.13;;;;;;;;;;5094039;28;20035;-77
2021/12/05 19:31:29;;;;;;;42.05;16.20;;;;;;;;;;5103706;28;20092;-77
2021/12/05 19:33:56;;;;;;;39.00;15.63;;;;;;;;;;5109884;28;20036;-77
2021/12/05 19:36:26;;;;;;;39.30;16.20;;;;;;;;;;5092610;28;20517;-77
2021/12/05 19:38:52;;;;;;;34.80;15.77;;;;;;;;;;5109896;28;20071;-77
2021/12/05 19:41:19;;;;;;;35.88;16.92;;;;;;;;;;5109743;28;20428;-78
2021/12/05 19:43:45;;;;;;;35.30;15.60;;;;;;;;;;5109157;28;20098;-77
2021/12/05 19:46:12;;;;;;;35.25;15.63;;;;;;;;;;5110964;28;20444;-77
2021/12/05 19:48:39;;;;;;;36.92;16.02;;;;;;;;;;5108864;28;20039;-77
2021/12/05 19:51:07;;;;;;;41.28;17.15;;;;;;;;;;5109719;28;20432;-77
2021/12/05 19:53:41;;;;;;;36.42;16.02;;;;;;;;;;5126989;27;20539;-76
2021/12/05 19:56:08;;;;;;;39.30;16.95;;;;;;;;;;5109162;28;20134;-78